createdAt,value
2022-10-06T00:02:22.318Z,101437.44
2022-10-06T00:04:58.956Z,101704.84
2022-10-06T00:07:49.555Z,101612.22
2022-10-06T00:10:35.109Z,101819.88
2022-10-06T00:13:19.308Z,101812.03
2022-10-06T00:15:52.992Z,101663.38
2022-10-06T00:18:25.039Z,101820.88
2022-10-06T00:21:09.570Z,101804.84
2022-10-06T00:23:59.008Z,101826.22
2022-10-06T00:26:41.803Z,101628.03
2022-10-06T00:29:15.039Z,101843.13
2022-10-06T00:31:56.843Z,101590.56
2022-10-06T00:34:27.798Z,101629.16
2022-10-06T00:36:58.648Z,101840.47
2022-10-06T00:39:32.099Z,101601.50
2022-10-06T00:42:13.024Z,101408.53
2022-10-06T00:44:51.090Z,101854.47
2022-10-06T00:47:24.138Z,101266.72
2022-10-06T00:50:12.456Z,101468.81
2022-10-06T00:52:44.296Z,101577.22
2022-10-06T00:55:26.313Z,101763.56
2022-10-06T00:58:02.061Z,101859.72
2022-10-06T01:00:34.582Z,101778.56
2022-10-06T01:03:20.465Z,101864.50
2022-10-06T01:05:51.054Z,101446.31
2022-10-06T01:08:19.146Z,101863.06
2022-10-06T01:10:45.479Z,101848.75
2022-10-06T01:13:13.213Z,101826.75
2022-10-06T01:15:44.589Z,101868.94
2022-10-06T01:18:14.816Z,101797.28
2022-10-06T01:20:50.114Z,101881.31
2022-10-06T01:23:17.242Z,101872.28
2022-10-06T01:25:44.643Z,101889.56
2022-10-06T01:28:13.610Z,101818.63
2022-10-06T01:30:53.189Z,101861.47
2022-10-06T01:33:21.210Z,101893.91
2022-10-06T01:35:50.483Z,101857.19
2022-10-06T01:38:17.782Z,101905.13
2022-10-06T01:40:44.913Z,101901.44
2022-10-06T01:43:11.666Z,101899.34
2022-10-06T01:45:38.854Z,101908.78
2022-10-06T01:48:05.609Z,101868.63
2022-10-06T01:50:31.972Z,101829.00
2022-10-06T01:52:58.314Z,101877.56
2022-10-06T01:55:25.748Z,101903.28
2022-10-06T01:57:52.167Z,101839.28
2022-10-06T02:00:19.127Z,101927.81
2022-10-06T02:02:45.588Z,101882.47
2022-10-06T02:05:12.177Z,101925.38
2022-10-06T02:07:38.766Z,101925.69
2022-10-06T02:10:06.544Z,101942.47
2022-10-06T02:12:33.000Z,101876.25
2022-10-06T02:14:59.442Z,101852.59
2022-10-06T02:17:25.781Z,101949.69
2022-10-06T02:19:52.403Z,101955.03
2022-10-06T02:22:18.716Z,101870.31
2022-10-06T02:24:45.044Z,101856.94
2022-10-06T02:27:11.497Z,101808.94
2022-10-06T02:29:37.827Z,101963.50
2022-10-06T02:32:04.236Z,101952.38
2022-10-06T02:34:30.596Z,101902.16
2022-10-06T02:36:57.672Z,101899.78
2022-10-06T02:39:24.006Z,101968.59
2022-10-06T02:41:50.390Z,101934.44
2022-10-06T02:44:16.769Z,101929.47
2022-10-06T02:46:43.148Z,101981.66
2022-10-06T02:49:09.541Z,101925.06
2022-10-06T02:51:35.870Z,101764.56
2022-10-06T02:54:02.283Z,101928.09
2022-10-06T02:56:28.604Z,101912.94
2022-10-06T02:58:57.180Z,101918.31
2022-10-06T03:01:26.411Z,101894.34
2022-10-06T03:03:53.345Z,102008.63
2022-10-06T03:06:22.284Z,101960.94
2022-10-06T03:08:50.093Z,101957.47
2022-10-06T03:11:23.121Z,102010.50
2022-10-06T03:13:51.428Z,101961.88
2022-10-06T03:16:30.237Z,102004.94
2022-10-06T03:18:56.947Z,101944.53
2022-10-06T03:21:26.071Z,102018.13
2022-10-06T03:23:54.348Z,101974.91
2022-10-06T03:26:24.097Z,101982.88
2022-10-06T03:28:50.544Z,102027.97
2022-10-06T03:31:17.809Z,102014.63
2022-10-06T03:33:44.249Z,102020.06
2022-10-06T03:36:15.905Z,101896.75
2022-10-06T03:38:42.981Z,102048.97
2022-10-06T03:41:10.629Z,102066.53
2022-10-06T03:43:38.132Z,102064.94
2022-10-06T03:46:06.178Z,102067.69
2022-10-06T03:48:34.825Z,102065.75
2022-10-06T03:51:04.237Z,101874.38
2022-10-06T03:53:32.155Z,102084.75
2022-10-06T03:56:00.333Z,101926.88
2022-10-06T03:58:29.007Z,102091.78
2022-10-06T04:01:10.654Z,102101.50
2022-10-06T04:03:37.262Z,102092.47
2022-10-06T04:06:06.964Z,102120.78
2022-10-06T04:08:35.000Z,102124.53
2022-10-06T04:11:11.131Z,102070.41
2022-10-06T04:13:39.354Z,102119.59
2022-10-06T04:16:11.914Z,102127.44
2022-10-06T04:18:38.606Z,102009.84
2022-10-06T04:21:05.453Z,102157.63
2022-10-06T04:23:32.221Z,102083.66
2022-10-06T04:26:00.349Z,102166.47
2022-10-06T04:28:26.903Z,102155.13
2022-10-06T04:31:00.829Z,102134.78
2022-10-06T04:33:28.425Z,102155.25
2022-10-06T04:36:03.335Z,102171.25
2022-10-06T04:38:33.107Z,102081.81
2022-10-06T04:41:14.520Z,102162.69
2022-10-06T04:43:41.582Z,102175.91
2022-10-06T04:46:24.285Z,102062.72
2022-10-06T04:48:56.135Z,102077.31
2022-10-06T04:51:25.011Z,102128.34
2022-10-06T04:53:51.925Z,102114.66
2022-10-06T04:56:24.047Z,102070.94
2022-10-06T04:58:52.627Z,102186.19
2022-10-06T05:01:26.177Z,102191.66
2022-10-06T05:03:58.204Z,102189.25
2022-10-06T05:06:27.891Z,102198.84
2022-10-06T05:08:57.140Z,102165.47
2022-10-06T05:11:26.036Z,102203.34
2022-10-06T05:13:57.515Z,102207.72
2022-10-06T05:16:25.537Z,102214.88
2022-10-06T05:18:52.055Z,102179.50
2022-10-06T05:21:24.383Z,102207.41
2022-10-06T05:23:51.156Z,102086.78
2022-10-06T05:26:23.238Z,102152.34
2022-10-06T05:28:50.369Z,102245.56
2022-10-06T05:31:21.555Z,102243.88
2022-10-06T05:33:48.729Z,102244.91
2022-10-06T05:36:24.390Z,102252.75
2022-10-06T05:38:50.724Z,102261.50
2022-10-06T05:41:19.477Z,102264.28
2022-10-06T05:43:45.900Z,102265.94
2022-10-06T05:46:17.664Z,102276.56
2022-10-06T05:48:48.725Z,102103.44
2022-10-06T05:51:15.580Z,102176.91
2022-10-06T05:53:42.618Z,102217.44
2022-10-06T05:56:15.056Z,102297.81
2022-10-06T05:58:43.748Z,102290.88
2022-10-06T06:01:35.088Z,102303.97
2022-10-06T06:04:04.740Z,102306.59
2022-10-06T06:06:33.749Z,102280.72
2022-10-06T06:09:14.394Z,102258.50
2022-10-06T06:11:43.398Z,102307.50
2022-10-06T06:14:12.064Z,102318.78
2022-10-06T06:16:40.037Z,102298.06
2022-10-06T06:19:07.915Z,102317.91
2022-10-06T06:21:34.593Z,102324.84
2022-10-06T06:24:02.211Z,102329.22
2022-10-06T06:26:30.832Z,102259.19
2022-10-06T06:29:07.645Z,102227.28
2022-10-06T06:31:38.957Z,102332.56
2022-10-06T06:34:07.038Z,102317.00
2022-10-06T06:36:40.491Z,102329.81
2022-10-06T06:39:09.145Z,102345.47
2022-10-06T06:41:38.613Z,102290.25
2022-10-06T06:44:11.020Z,102339.41
2022-10-06T06:46:38.276Z,102316.72
2022-10-06T06:49:05.996Z,102358.00
2022-10-06T06:51:34.510Z,102289.66
2022-10-06T06:54:02.499Z,102355.75
2022-10-06T06:56:35.053Z,102284.69
2022-10-06T06:59:03.661Z,102361.38
2022-10-06T07:01:30.557Z,102365.50
2022-10-06T07:04:00.988Z,102372.16
2022-10-06T07:06:31.974Z,102352.81
2022-10-06T07:08:59.862Z,102367.28
2022-10-06T07:11:36.942Z,102349.66
2022-10-06T07:14:09.996Z,102352.09
2022-10-06T07:16:54.908Z,102379.25
2022-10-06T07:19:57.514Z,102338.75
2022-10-06T07:22:47.272Z,102323.63
2022-10-06T07:25:26.345Z,102410.56
2022-10-06T07:27:53.177Z,102352.56
2022-10-06T07:30:23.042Z,102410.81
2022-10-06T07:32:51.028Z,102414.97
2022-10-06T07:35:20.214Z,102427.81
2022-10-06T07:37:47.702Z,102386.31
2022-10-06T07:40:14.844Z,102427.38
2022-10-06T07:42:53.598Z,102420.69
2022-10-06T07:45:38.735Z,102355.03
2022-10-06T07:48:19.984Z,102446.97
2022-10-06T07:50:49.085Z,102378.03
2022-10-06T07:53:17.764Z,102377.63
2022-10-06T07:55:46.326Z,102451.38
2022-10-06T07:58:18.634Z,102452.91
2022-10-06T08:00:46.714Z,102442.47
2022-10-06T08:03:18.559Z,102459.38
2022-10-06T08:05:50.124Z,102414.41
2022-10-06T08:08:16.935Z,102418.50
2022-10-06T08:10:53.673Z,102457.84
2022-10-06T08:13:20.141Z,102461.94
2022-10-06T08:15:49.932Z,102469.34
2022-10-06T08:18:41.139Z,102440.09
2022-10-06T08:21:11.418Z,102451.63
2022-10-06T08:23:42.174Z,102477.34
2022-10-06T08:26:10.202Z,102392.31
2022-10-06T08:28:37.484Z,102482.19
2022-10-06T08:31:11.598Z,102429.38
2022-10-06T08:33:39.552Z,102426.78
2022-10-06T08:36:08.606Z,102356.69
2022-10-06T08:38:38.438Z,102476.44
2022-10-06T08:41:24.057Z,102484.41
2022-10-06T08:44:21.541Z,102483.56
2022-10-06T08:47:12.762Z,102503.22
2022-10-06T08:49:51.366Z,102439.91
2022-10-06T08:52:20.504Z,102493.56
2022-10-06T08:54:49.533Z,102501.19
2022-10-06T08:57:37.806Z,102508.97
2022-10-06T09:00:19.580Z,102496.72
2022-10-06T09:02:49.910Z,102521.03
2022-10-06T09:05:25.061Z,102507.88
2022-10-06T09:08:13.461Z,102524.16
2022-10-06T09:11:27.943Z,102493.28
2022-10-06T09:14:02.977Z,102398.88
2022-10-06T09:16:35.080Z,102535.22
2022-10-06T09:19:18.076Z,102524.34
2022-10-06T09:21:49.420Z,102532.34
2022-10-06T09:24:25.299Z,102494.38
2022-10-06T09:26:54.906Z,102532.53
2022-10-06T09:29:21.660Z,102480.00
2022-10-06T09:31:50.431Z,102456.25
2022-10-06T09:34:38.518Z,102545.22
2022-10-06T09:37:11.057Z,102514.31
2022-10-06T09:39:45.050Z,102545.03
2022-10-06T09:42:35.460Z,102515.47
2022-10-06T09:45:16.854Z,102547.69
2022-10-06T09:47:45.585Z,102550.56
2022-10-06T09:50:21.481Z,102512.31
2022-10-06T09:53:06.226Z,102553.75
2022-10-06T09:55:38.393Z,102552.28
2022-10-06T09:58:29.547Z,102522.34
2022-10-06T10:01:00.015Z,102551.28
2022-10-06T10:03:44.528Z,102542.72
2022-10-06T10:06:29.672Z,102560.03
2022-10-06T10:09:29.556Z,102397.50
2022-10-06T10:12:29.824Z,102482.13
2022-10-06T10:15:04.795Z,102411.88
2022-10-06T10:17:52.638Z,102557.69
2022-10-06T10:20:24.956Z,102560.69
2022-10-06T10:22:52.930Z,102513.66
2022-10-06T10:25:37.447Z,102553.03
2022-10-06T10:28:17.400Z,102556.56
2022-10-06T10:30:55.828Z,102559.69
2022-10-06T10:33:46.123Z,102526.44
2022-10-06T10:36:30.896Z,102457.28
2022-10-06T10:38:58.109Z,102461.25
2022-10-06T10:41:28.801Z,102568.34
2022-10-06T10:44:10.819Z,102554.28
2022-10-06T10:46:47.149Z,102567.72
2022-10-06T10:49:19.676Z,102544.38
2022-10-06T10:51:55.689Z,102563.13
2022-10-06T10:54:36.615Z,102558.41
2022-10-06T10:57:03.969Z,102510.72
2022-10-06T10:59:33.330Z,102564.91
2022-10-06T11:02:01.649Z,102566.00
2022-10-06T11:04:28.182Z,102514.34
2022-10-06T11:07:24.578Z,102559.50
2022-10-06T11:10:02.809Z,102437.38
2022-10-06T11:12:48.680Z,102582.09
2022-10-06T11:15:33.725Z,102575.84
2022-10-06T11:18:13.244Z,102590.94
2022-10-06T11:20:57.758Z,102391.53
2022-10-06T11:23:40.547Z,102581.56
2022-10-06T11:26:35.872Z,102551.69
2022-10-06T11:29:27.053Z,102595.53
2022-10-06T11:32:16.762Z,102472.91
2022-10-06T11:34:44.798Z,102590.44
2022-10-06T11:37:34.961Z,102591.31
2022-10-06T11:40:26.182Z,102580.19
2022-10-06T11:43:05.994Z,102588.09
2022-10-06T11:45:55.474Z,102581.09
2022-10-06T11:48:26.689Z,102587.41
2022-10-06T11:50:55.551Z,102582.78
2022-10-06T11:53:38.877Z,102576.53
2022-10-06T11:56:17.258Z,102586.13
2022-10-06T11:58:55.994Z,102595.50
2022-10-06T12:01:31.278Z,102581.00
2022-10-06T12:04:08.203Z,102584.78
2022-10-06T12:06:46.785Z,102580.75
2022-10-06T12:09:46.124Z,102572.66
2022-10-06T12:12:15.199Z,102578.75
2022-10-06T12:16:55.316Z,102571.91
2022-10-06T12:18:06.000Z,102567.25
2022-10-06T12:20:49.887Z,102571.34
2022-10-06T12:23:38.901Z,102574.53
2022-10-06T12:26:30.570Z,102571.72
2022-10-06T12:29:12.219Z,102571.72
2022-10-06T12:31:46.242Z,102517.34
2022-10-06T12:34:41.701Z,102570.88
2022-10-06T12:37:29.247Z,102561.13
2022-10-06T12:40:33.212Z,102567.47
2022-10-06T12:43:14.785Z,102562.84
2022-10-06T12:45:46.250Z,102538.53
2022-10-06T12:48:31.124Z,102527.19
2022-10-06T12:51:15.737Z,102533.47
2022-10-06T12:54:21.192Z,102429.03
2022-10-06T12:57:02.200Z,102563.38
2022-10-06T12:59:34.786Z,102539.06
2022-10-06T13:02:04.622Z,102567.16
2022-10-06T13:04:35.390Z,102563.13
2022-10-06T13:07:19.949Z,102528.06
2022-10-06T13:09:48.528Z,102563.88
2022-10-06T13:12:36.488Z,102567.09
2022-10-06T13:15:20.753Z,102459.03
2022-10-06T13:18:19.574Z,102566.13
2022-10-06T13:20:50.162Z,102521.03
2022-10-06T13:23:22.892Z,102536.88
2022-10-06T13:25:54.468Z,102571.38
2022-10-06T13:28:23.895Z,102562.84
2022-10-06T13:31:22.707Z,102530.84
2022-10-06T13:33:56.164Z,102561.75
2022-10-06T13:36:23.560Z,102552.00
2022-10-06T13:38:50.226Z,102566.13
2022-10-06T13:41:47.253Z,102570.19
2022-10-06T13:44:14.116Z,102580.31
2022-10-06T13:46:53.254Z,102591.44
2022-10-06T13:49:22.230Z,102581.66
2022-10-06T13:51:51.590Z,102582.50
2022-10-06T13:54:35.024Z,102582.81
2022-10-06T13:57:01.353Z,102536.38
2022-10-06T13:59:36.973Z,102583.56
2022-10-06T14:02:18.228Z,102581.31
2022-10-06T14:04:45.406Z,102565.97
2022-10-06T14:07:14.059Z,102577.47
2022-10-06T14:09:42.018Z,102552.69
2022-10-06T14:12:14.584Z,102582.63
2022-10-06T14:14:49.181Z,102572.34
2022-10-06T14:17:27.991Z,102448.09
2022-10-06T14:19:54.551Z,102513.50
2022-10-06T14:22:38.182Z,102540.66
2022-10-06T14:25:11.616Z,102575.16
2022-10-06T14:27:38.013Z,102523.50
2022-10-06T14:30:05.117Z,102513.81
2022-10-06T14:32:31.458Z,102598.22
2022-10-06T14:34:57.762Z,102548.50
2022-10-06T14:37:24.101Z,102603.94
2022-10-06T14:39:50.853Z,102540.53
2022-10-06T14:42:17.373Z,102520.06
2022-10-06T14:44:44.731Z,102603.34
2022-10-06T14:47:11.069Z,102551.22
2022-10-06T14:49:40.577Z,102599.28
2022-10-06T14:52:10.311Z,102594.81
2022-10-06T14:54:36.668Z,102520.50
2022-10-06T14:57:03.051Z,102591.97
2022-10-06T14:59:29.377Z,102580.72
2022-10-06T15:01:55.727Z,102476.09
2022-10-06T15:04:25.185Z,102597.78
2022-10-06T15:07:09.996Z,102467.91
2022-10-06T15:09:36.430Z,102485.31
2022-10-06T15:12:03.207Z,102525.66
2022-10-06T15:14:29.795Z,102589.19
2022-10-06T15:16:59.898Z,102596.75
2022-10-06T15:19:26.434Z,102534.31
2022-10-06T15:21:52.819Z,102535.31
2022-10-06T15:24:19.640Z,102585.50
2022-10-06T15:27:05.753Z,102599.78
2022-10-06T15:29:34.620Z,102604.16
2022-10-06T15:32:02.566Z,102372.28
2022-10-06T15:34:31.880Z,102515.19
2022-10-06T15:36:59.109Z,102595.97
2022-10-06T15:39:34.629Z,102595.25
2022-10-06T15:42:00.984Z,102560.03
2022-10-06T15:44:31.405Z,102567.91
2022-10-06T15:46:58.097Z,102549.97
2022-10-06T15:49:26.913Z,102599.56
2022-10-06T15:51:59.501Z,102548.31
2022-10-06T15:54:28.009Z,102608.59
2022-10-06T15:56:56.801Z,102554.09
2022-10-06T15:59:24.981Z,102606.03
2022-10-06T16:01:57.062Z,102589.34
2022-10-06T16:04:35.034Z,102613.84
2022-10-06T16:07:02.653Z,102603.84
2022-10-06T16:09:38.138Z,102529.38
2022-10-06T16:12:08.845Z,102623.19
2022-10-06T16:14:38.201Z,102550.94
2022-10-06T16:17:05.822Z,102604.25
2022-10-06T16:19:38.387Z,102572.28
2022-10-06T16:22:07.043Z,102433.50
2022-10-06T16:24:33.389Z,102618.81
2022-10-06T16:27:00.154Z,102540.78
2022-10-06T16:29:27.929Z,102613.63
2022-10-06T16:31:54.384Z,102502.53
2022-10-06T16:34:21.021Z,102615.97
2022-10-06T16:36:47.336Z,102587.31
2022-10-06T16:39:19.447Z,102527.28
2022-10-06T16:41:46.515Z,102617.97
2022-10-06T16:44:12.966Z,102619.22
2022-10-06T16:46:39.884Z,102486.00
2022-10-06T16:49:10.851Z,102600.78
2022-10-06T16:51:39.872Z,102627.94
2022-10-06T16:54:08.880Z,102594.19
2022-10-06T16:56:36.333Z,102635.50
2022-10-06T16:59:06.483Z,102593.03
2022-10-06T17:01:35.493Z,102620.66
2022-10-06T17:04:06.937Z,102641.75
2022-10-06T17:06:41.577Z,102642.13
2022-10-06T17:09:11.813Z,102639.03
2022-10-06T17:11:38.388Z,102615.50
2022-10-06T17:14:05.373Z,102584.63
2022-10-06T17:16:34.586Z,102644.31
2022-10-06T17:19:01.490Z,102580.69
2022-10-06T17:21:57.445Z,102638.75
2022-10-06T17:24:15.168Z,102648.75
2022-10-06T17:26:43.631Z,102647.28
2022-10-06T17:29:18.568Z,102648.34
2022-10-06T17:31:45.756Z,102562.25
2022-10-06T17:34:20.771Z,102537.41
2022-10-06T17:36:50.504Z,102646.47
2022-10-06T17:39:19.210Z,102648.50
2022-10-06T17:41:46.923Z,102649.63
2022-10-06T17:44:18.726Z,102616.88
2022-10-06T17:46:45.492Z,102648.22
2022-10-06T17:49:14.851Z,102654.56
2022-10-06T17:51:42.793Z,102649.50
2022-10-06T17:54:15.922Z,102645.31
2022-10-06T17:56:43.853Z,102584.16
2022-10-06T17:59:22.762Z,102617.91
2022-10-06T18:01:51.165Z,102618.94
2022-10-06T18:04:18.529Z,102567.44
2022-10-06T18:06:46.354Z,102609.97
2022-10-06T18:09:13.604Z,102655.06
2022-10-06T18:11:41.944Z,102649.00
2022-10-06T18:14:19.820Z,102570.41
2022-10-06T18:16:56.282Z,102638.78
2022-10-06T18:19:26.424Z,102635.47
2022-10-06T18:21:56.229Z,102568.41
2022-10-06T18:24:25.050Z,102593.47
2022-10-06T18:26:54.131Z,102624.72
2022-10-06T18:29:23.110Z,102555.59
2022-10-06T18:31:50.954Z,102627.47
2022-10-06T18:36:01.755Z,102628.50
2022-10-06T18:37:04.415Z,102584.53
2022-10-06T18:39:31.919Z,102622.59
2022-10-06T18:42:02.282Z,102538.94
2022-10-06T18:44:47.126Z,102534.66
2022-10-06T18:47:31.943Z,102634.03
2022-10-06T18:49:58.286Z,102631.41
2022-10-06T18:52:24.613Z,102637.59
2022-10-06T18:54:50.930Z,102488.16
2022-10-06T18:57:17.355Z,102633.47
2022-10-06T18:59:43.820Z,102618.09
2022-10-06T19:02:10.905Z,102575.03
2022-10-06T19:04:39.019Z,102635.59
2022-10-06T19:07:05.620Z,102643.56
2022-10-06T19:09:31.915Z,102597.78
2022-10-06T19:11:58.759Z,102646.34
2022-10-06T19:14:31.349Z,102599.72
2022-10-06T19:17:00.114Z,102644.75
2022-10-06T19:19:28.060Z,102643.06
2022-10-06T19:21:59.944Z,102534.13
2022-10-06T19:24:28.540Z,102639.63
2022-10-06T19:26:56.315Z,102567.84
2022-10-06T19:29:23.884Z,102634.47
2022-10-06T19:31:52.498Z,102639.72
2022-10-06T19:34:20.120Z,102637.13
2022-10-06T19:36:50.816Z,102637.16
2022-10-06T19:39:17.787Z,102600.03
2022-10-06T19:42:02.980Z,102584.59
2022-10-06T19:44:29.313Z,102548.22
2022-10-06T19:46:55.620Z,102535.28
2022-10-06T19:49:23.148Z,102515.56
2022-10-06T19:51:50.063Z,102473.06
2022-10-06T19:54:18.150Z,102457.75
2022-10-06T19:56:46.032Z,102483.56
2022-10-06T19:59:17.822Z,102600.31
2022-10-06T20:01:45.050Z,102591.53
2022-10-06T20:04:12.349Z,102610.69
2022-10-06T20:06:41.238Z,102573.41
2022-10-06T20:09:12.974Z,102635.22
2022-10-06T20:11:43.726Z,102567.91
2022-10-06T20:14:16.992Z,102573.22
2022-10-06T20:16:47.930Z,102622.56
2022-10-06T20:19:14.569Z,102594.03
2022-10-06T20:21:41.296Z,102564.63
2022-10-06T20:24:12.614Z,102539.47
2022-10-06T20:26:41.432Z,102627.88
2022-10-06T20:29:11.489Z,102601.16
2022-10-06T20:31:43.715Z,102619.34
2022-10-06T20:34:13.630Z,102650.69
2022-10-06T20:36:40.052Z,102594.38
2022-10-06T20:39:34.241Z,102602.09
2022-10-06T20:42:01.108Z,102633.47
2022-10-06T20:44:27.498Z,102608.25
2022-10-06T20:46:54.447Z,102602.31
2022-10-06T20:49:21.185Z,102613.50
2022-10-06T20:51:52.077Z,102630.84
2022-10-06T20:54:24.844Z,102554.63
2022-10-06T20:56:52.446Z,102625.69
2022-10-06T20:59:20.325Z,102617.84
2022-10-06T21:01:47.964Z,102524.41
2022-10-06T21:04:15.041Z,102573.78
2022-10-06T21:06:41.395Z,102588.59
2022-10-06T21:09:12.634Z,102620.59
2022-10-06T21:11:38.995Z,102540.91
2022-10-06T21:14:07.372Z,102343.66
2022-10-06T21:16:35.224Z,102580.78
2022-10-06T21:19:03.799Z,102605.84
2022-10-06T21:21:30.708Z,102565.13
2022-10-06T21:23:57.077Z,102584.28
2022-10-06T21:26:25.862Z,102580.81
2022-10-06T21:28:52.599Z,102594.75
2022-10-06T21:31:23.652Z,102528.03
2022-10-06T21:33:51.320Z,102592.16
2022-10-06T21:36:20.107Z,102598.28
2022-10-06T21:38:48.844Z,102525.50
2022-10-06T21:41:31.932Z,102587.03
2022-10-06T21:44:11.752Z,102587.94
2022-10-06T21:46:45.674Z,102530.72
2022-10-06T21:49:14.213Z,102517.78
2022-10-06T21:51:42.619Z,102527.31
2022-10-06T21:54:12.498Z,102508.25
2022-10-06T21:56:39.845Z,102570.53
2022-10-06T21:59:07.011Z,102522.03
2022-10-06T22:01:38.497Z,102561.75
2022-10-06T22:04:05.591Z,102453.53
2022-10-06T22:06:33.909Z,102558.28
2022-10-06T22:09:00.872Z,102437.06
2022-10-06T22:11:34.682Z,102554.75
2022-10-06T22:14:03.897Z,102551.25
2022-10-06T22:16:32.742Z,102539.91
2022-10-06T22:19:01.744Z,102539.88
2022-10-06T22:21:30.667Z,102543.31
2022-10-06T22:23:59.452Z,102538.09
2022-10-06T22:26:27.448Z,102324.34
2022-10-06T22:28:57.410Z,102463.56
2022-10-06T22:31:26.307Z,102531.03
2022-10-06T22:33:58.699Z,102501.59
2022-10-06T22:36:26.647Z,102517.94
2022-10-06T22:38:53.913Z,102488.50
2022-10-06T22:41:21.051Z,102424.56
2022-10-06T22:43:47.611Z,102512.81
2022-10-06T22:46:14.167Z,102456.59
2022-10-06T22:48:41.657Z,102506.81
2022-10-06T22:51:08.392Z,102480.94
2022-10-06T22:53:34.845Z,102343.44
2022-10-06T22:56:02.656Z,102503.41
2022-10-06T22:58:29.057Z,102413.41
2022-10-06T23:00:58.595Z,102397.81
2022-10-06T23:03:25.128Z,102445.44
2022-10-06T23:05:56.354Z,102444.59
2022-10-06T23:08:23.550Z,102479.06
2022-10-06T23:10:50.276Z,102374.47
2022-10-06T23:13:16.711Z,102390.09
2022-10-06T23:15:43.462Z,102438.53
2022-10-06T23:18:10.263Z,102469.66
2022-10-06T23:20:36.598Z,102468.81
2022-10-06T23:23:02.934Z,102479.28
2022-10-06T23:25:29.405Z,102380.66
2022-10-06T23:27:55.707Z,102250.09
2022-10-06T23:30:22.022Z,102432.59
2022-10-06T23:32:48.349Z,102390.25
2022-10-06T23:35:14.715Z,102358.19
2022-10-06T23:37:40.995Z,102340.94
2022-10-06T23:40:07.940Z,102453.34
2022-10-06T23:42:34.243Z,102456.88
2022-10-06T23:45:00.583Z,102456.03
2022-10-06T23:47:26.943Z,102445.63
2022-10-06T23:49:54.131Z,102344.53
2022-10-06T23:52:20.444Z,102451.78
2022-10-06T23:54:46.768Z,102427.66
2022-10-06T23:57:13.069Z,102448.44
2022-10-06T23:59:39.361Z,102449.28
